Time;durP1;ratioP1;P1;durP2;ratioP2;P2;SDS_P1;SDS_P2;PMS_P1;PMS_P2;Temp;Humidity;BMP_temperature;BMP_pressure;BME280_temperature;BME280_humidity;BME280_pressure;Samples;Min_cycle;Max_cycle;Signal;HPM_P1;HPM_P2
2022/07/30 00:00:54;;;;;;;5.93;4.20;;;18.20;99.90;;;;;;5090238;28;20194;-70
2022/07/30 00:03:21;;;;;;;7.18;4.30;;;18.10;99.90;;;;;;5090268;28;20221;-70
2022/07/30 00:05:48;;;;;;;5.45;4.43;;;18.20;99.90;;;;;;5089319;28;20224;-70
2022/07/30 00:08:15;;;;;;;7.15;4.30;;;18.10;99.90;;;;;;5089648;28;20193;-70
2022/07/30 00:10:42;;;;;;;6.22;4.35;;;18.10;99.90;;;;;;5088651;28;20592;-70
2022/07/30 00:13:09;;;;;;;6.25;4.38;;;18.00;99.90;;;;;;5091218;28;20213;-70
2022/07/30 00:15:37;;;;;;;6.03;4.38;;;18.00;99.90;;;;;;5090780;28;20206;-70
2022/07/30 00:18:06;;;;;;;6.78;4.50;;;18.00;99.90;;;;;;5094331;28;20202;-70
2022/07/30 00:20:33;;;;;;;5.60;4.30;;;17.90;99.90;;;;;;5095153;28;20255;-70
2022/07/30 00:23:03;;;;;;;5.25;4.18;;;18.00;99.90;;;;;;5094992;28;20663;-70
2022/07/30 00:25:30;;;;;;;6.38;4.60;;;18.10;99.90;;;;;;5094759;28;20229;-70
2022/07/30 00:27:57;;;;;;;6.53;4.57;;;18.00;99.90;;;;;;5095209;28;20609;-70
2022/07/30 00:30:24;;;;;;;9.88;4.97;;;18.00;99.90;;;;;;5094631;28;20198;-68
2022/07/30 00:32:51;;;;;;;7.70;5.15;;;18.00;99.90;;;;;;5094650;28;20255;-70
2022/07/30 00:35:20;;;;;;;6.03;4.90;;;17.90;99.90;;;;;;5094823;28;20244;-70
2022/07/30 00:37:46;;;;;;;5.25;4.50;;;17.90;99.90;;;;;;5094377;28;20297;-70
2022/07/30 00:40:14;;;;;;;5.47;4.53;;;17.90;99.90;;;;;;5094947;28;20202;-70
2022/07/30 00:42:42;;;;;;;5.30;4.70;;;17.90;99.90;;;;;;5094665;28;20223;-70
2022/07/30 00:45:10;;;;;;;6.63;4.55;;;17.90;99.90;;;;;;5094809;28;20239;-70
2022/07/30 00:47:38;;;;;;;6.95;4.63;;;17.90;99.90;;;;;;5094517;28;20218;-70
2022/07/30 00:50:07;;;;;;;8.30;4.95;;;17.80;99.90;;;;;;5094695;28;20286;-70
2022/07/30 00:52:37;;;;;;;7.03;4.82;;;17.90;99.90;;;;;;5093900;28;20255;-70
2022/07/30 00:55:06;;;;;;;7.13;4.55;;;17.90;99.90;;;;;;5094346;28;20198;-70
2022/07/30 00:57:33;;;;;;;5.95;4.32;;;17.90;99.90;;;;;;5094309;28;20247;-70
2022/07/30 01:00:00;;;;;;;8.07;5.10;;;17.90;99.90;;;;;;5094098;28;20229;-70
2022/07/30 01:02:27;;;;;;;7.80;4.90;;;17.90;99.90;;;;;;5093972;28;20240;-70
2022/07/30 01:04:54;;;;;;;5.75;4.32;;;18.00;99.90;;;;;;5093807;28;20262;-70
2022/07/30 01:07:21;;;;;;;5.03;4.43;;;17.80;99.90;;;;;;5080867;28;20547;-70
2022/07/30 01:09:49;;;;;;;5.38;4.40;;;17.80;99.90;;;;;;5093915;28;20237;-70
2022/07/30 01:12:21;;;;;;;4.53;4.10;;;17.80;99.90;;;;;;5094059;28;20245;-70
2022/07/30 01:14:49;;;;;;;6.22;4.90;;;17.90;99.90;;;;;;5093969;28;20278;-70
2022/07/30 01:17:16;;;;;;;4.80;4.38;;;17.90;99.90;;;;;;5094243;28;20307;-70
2022/07/30 01:19:52;;;;;;;5.20;4.43;;;17.90;99.90;;;;;;5094136;28;20204;-70
2022/07/30 01:22:35;;;;;;;7.30;4.97;;;17.90;99.90;;;;;;5077851;28;20194;-70
2022/07/30 01:25:11;;;;;;;5.70;4.55;;;17.70;99.90;;;;;;5076142;28;20241;-70
2022/07/30 01:27:43;;;;;;;5.13;4.47;;;17.70;99.90;;;;;;5075806;28;20308;-70
2022/07/30 01:30:12;;;;;;;5.38;4.70;;;17.70;99.90;;;;;;5093042;28;20194;-70
2022/07/30 01:32:43;;;;;;;5.50;4.95;;;17.60;99.90;;;;;;5093234;28;20284;-70
2022/07/30 01:35:12;;;;;;;6.63;4.72;;;17.60;99.90;;;;;;5087747;28;20255;-70
2022/07/30 01:37:41;;;;;;;5.70;4.70;;;17.70;99.90;;;;;;5083837;28;20206;-70
2022/07/30 01:40:09;;;;;;;8.13;4.90;;;17.80;99.90;;;;;;5089103;28;20727;-70
2022/07/30 01:42:40;;;;;;;5.10;4.60;;;17.70;99.90;;;;;;5085602;28;20223;-70
2022/07/30 01:45:08;;;;;;;5.68;4.90;;;17.60;99.90;;;;;;5092533;28;20538;-70
2022/07/30 01:47:37;;;;;;;5.10;4.57;;;17.70;99.90;;;;;;5091840;28;20618;-70
2022/07/30 01:50:12;;;;;;;6.72;5.35;;;17.70;99.90;;;;;;5080177;28;20253;-70
2022/07/30 01:52:41;;;;;;;5.93;5.10;;;17.70;99.90;;;;;;5090315;28;20197;-70
2022/07/30 01:55:10;;;;;;;7.40;5.30;;;17.60;99.90;;;;;;5092276;28;20198;-70
2022/07/30 01:57:38;;;;;;;8.18;5.57;;;17.50;99.90;;;;;;5084536;28;20251;-70
2022/07/30 02:00:10;;;;;;;6.15;4.95;;;17.50;99.90;;;;;;5090862;28;20202;-70
2022/07/30 02:02:40;;;;;;;5.97;5.20;;;17.50;99.90;;;;;;5092810;28;20571;-70
2022/07/30 02:05:07;;;;;;;5.70;5.10;;;17.70;99.90;;;;;;5092483;28;20671;-70
2022/07/30 02:07:39;;;;;;;5.65;4.70;;;17.50;99.90;;;;;;5092485;28;20243;-70
2022/07/30 02:10:12;;;;;;;7.38;5.57;;;17.50;99.90;;;;;;5092377;28;20289;-70
2022/07/30 02:12:46;;;;;;;7.75;5.20;;;17.40;99.90;;;;;;5082271;28;20635;-70
2022/07/30 02:15:17;;;;;;;8.25;5.40;;;17.40;99.90;;;;;;5075905;28;20198;-70
2022/07/30 02:17:58;;;;;;;8.13;6.10;;;17.40;99.90;;;;;;5083071;28;20211;-70
2022/07/30 02:20:28;;;;;;;7.63;5.82;;;17.30;99.90;;;;;;5089030;28;20251;-69
2022/07/30 02:23:06;;;;;;;7.07;5.60;;;17.30;99.90;;;;;;5090081;28;20605;-69
2022/07/30 02:25:36;;;;;;;9.88;5.80;;;17.30;99.90;;;;;;5091935;28;20254;-69
2022/07/30 02:28:07;;;;;;;7.85;5.57;;;17.30;99.90;;;;;;5091580;28;20221;-70
2022/07/30 02:30:40;;;;;;;9.13;5.65;;;17.00;99.90;;;;;;5092070;28;20652;-69
2022/07/30 02:33:11;;;;;;;7.70;5.95;;;17.10;99.90;;;;;;5091903;28;20259;-69
2022/07/30 02:35:39;;;;;;;6.25;5.53;;;17.10;99.90;;;;;;5091398;28;20232;-69
2022/07/30 02:38:09;;;;;;;7.32;6.07;;;17.10;99.90;;;;;;5090759;28;20276;-69
2022/07/30 02:40:39;;;;;;;8.43;6.45;;;17.10;99.90;;;;;;5092299;28;20725;-69
2022/07/30 02:43:06;;;;;;;9.02;6.22;;;17.20;99.90;;;;;;5091325;28;20209;-69
2022/07/30 02:45:37;;;;;;;9.48;6.45;;;17.20;99.90;;;;;;5092369;28;20256;-69
2022/07/30 02:48:05;;;;;;;8.23;5.95;;;17.20;99.90;;;;;;5090772;28;20229;-69
2022/07/30 02:50:33;;;;;;;11.77;6.88;;;17.10;99.90;;;;;;5090886;28;20198;-69
2022/07/30 02:53:02;;;;;;;9.00;6.20;;;17.00;99.90;;;;;;5089344;28;20642;-69
2022/07/30 02:55:32;;;;;;;6.85;5.60;;;17.20;99.90;;;;;;5090461;28;20240;-69
2022/07/30 02:58:01;;;;;;;7.28;6.07;;;17.20;99.90;;;;;;5090989;28;20233;-69
2022/07/30 03:00:30;;;;;;;9.38;6.28;;;17.20;99.90;;;;;;5091687;28;20202;-69
2022/07/30 03:03:00;;;;;;;6.93;5.88;;;17.20;99.90;;;;;;5091086;28;20229;-69
2022/07/30 03:05:28;;;;;;;8.75;5.95;;;17.10;99.90;;;;;;5092222;28;20209;-69
2022/07/30 03:07:57;;;;;;;7.30;6.47;;;17.10;99.90;;;;;;5088583;28;20225;-69
2022/07/30 03:10:25;;;;;;;8.25;6.10;;;17.10;99.90;;;;;;5085097;28;20251;-69
2022/07/30 03:12:53;;;;;;;7.60;6.13;;;17.10;99.90;;;;;;5090055;28;20289;-69
2022/07/30 03:15:21;;;;;;;9.23;6.57;;;17.10;99.90;;;;;;5082936;28;20284;-69
2022/07/30 03:17:53;;;;;;;10.15;6.28;;;17.10;99.90;;;;;;5070948;28;20642;-70
2022/07/30 03:20:27;;;;;;;7.67;6.00;;;17.00;99.90;;;;;;5074413;28;20234;-69
2022/07/30 03:22:56;;;;;;;9.57;6.32;;;16.90;99.90;;;;;;5084059;28;20198;-69
2022/07/30 03:25:26;;;;;;;8.43;6.53;;;16.90;99.90;;;;;;5091411;28;20709;-69
2022/07/30 03:27:56;;;;;;;8.90;6.05;;;16.80;99.90;;;;;;5091086;28;20287;-69
2022/07/30 03:30:25;;;;;;;7.53;6.70;;;16.90;99.90;;;;;;5091131;28;20201;-70
2022/07/30 03:32:54;;;;;;;10.05;7.00;;;16.90;99.90;;;;;;5091079;28;20606;-69
2022/07/30 03:35:24;;;;;;;10.05;6.65;;;16.80;99.90;;;;;;5090810;28;20197;-70
2022/07/30 03:37:51;;;;;;;9.23;6.68;;;16.70;99.90;;;;;;5090186;28;20208;-70
2022/07/30 03:40:19;;;;;;;10.43;6.85;;;16.70;99.90;;;;;;5091572;28;20198;-70
2022/07/30 03:42:46;;;;;;;10.35;6.60;;;16.70;99.90;;;;;;5090778;28;20223;-69
2022/07/30 03:45:15;;;;;;;14.10;7.10;;;16.60;99.90;;;;;;5091208;28;20288;-70
2022/07/30 03:47:43;;;;;;;9.05;6.88;;;16.70;99.90;;;;;;5089255;28;20581;-70
2022/07/30 03:50:12;;;;;;;11.90;7.07;;;16.80;99.90;;;;;;5091313;28;20247;-70
2022/07/30 03:52:41;;;;;;;8.30;6.68;;;16.70;99.90;;;;;;5086255;28;20304;-69
2022/07/30 03:55:10;;;;;;;12.05;9.02;;;16.60;99.90;;;;;;5079651;28;20640;-70
2022/07/30 03:57:38;;;;;;;10.60;7.88;;;16.50;99.90;;;;;;5082782;28;20205;-70
2022/07/30 04:00:07;;;;;;;12.57;8.05;;;16.50;99.90;;;;;;5081382;28;20545;-70
2022/07/30 04:02:42;;;;;;;14.68;8.48;;;16.40;99.90;;;;;;5086517;28;20208;-69
2022/07/30 04:05:09;;;;;;;12.43;7.35;;;16.40;99.90;;;;;;5084112;28;20231;-70
2022/07/30 04:07:36;;;;;;;11.60;7.95;;;16.50;99.90;;;;;;5088007;28;20505;-70
2022/07/30 04:10:09;;;;;;;8.27;6.68;;;16.40;99.90;;;;;;5088370;28;20204;-70
2022/07/30 04:12:36;;;;;;;10.50;7.07;;;16.50;99.90;;;;;;5084446;28;20629;-70
2022/07/30 04:15:03;;;;;;;9.10;6.90;;;16.50;99.90;;;;;;5087800;28;20244;-69
2022/07/30 04:17:36;;;;;;;10.65;7.60;;;16.60;99.90;;;;;;5081741;28;20655;-69
2022/07/30 04:20:07;;;;;;;8.32;7.43;;;16.60;99.90;;;;;;5084275;28;20278;-69
2022/07/30 04:22:37;;;;;;;10.13;7.50;;;16.60;99.90;;;;;;5087472;28;20233;-69
2022/07/30 04:25:08;;;;;;;9.40;7.18;;;16.60;99.90;;;;;;5083619;28;20244;-69
2022/07/30 04:27:36;;;;;;;11.00;7.68;;;16.70;99.90;;;;;;5083363;28;20760;-69
2022/07/30 04:30:04;;;;;;;10.35;7.82;;;16.70;99.90;;;;;;5085299;28;20221;-70
2022/07/30 04:32:33;;;;;;;11.32;7.28;;;16.80;99.90;;;;;;5084183;28;20237;-69
2022/07/30 04:35:01;;;;;;;11.50;7.50;;;16.80;99.90;;;;;;5082058;28;20203;-69
2022/07/30 04:37:28;;;;;;;7.70;6.68;;;16.80;99.90;;;;;;5084282;28;20198;-69
2022/07/30 04:39:56;;;;;;;9.20;7.15;;;16.80;99.90;;;;;;5084896;28;20202;-69
2022/07/30 04:42:25;;;;;;;8.57;7.00;;;16.70;99.90;;;;;;5084290;28;20210;-69
2022/07/30 04:44:52;;;;;;;10.98;7.55;;;16.70;99.90;;;;;;5082031;28;20193;-69
2022/07/30 04:47:20;;;;;;;10.05;6.75;;;16.80;99.90;;;;;;5088331;28;20549;-69
2022/07/30 04:49:48;;;;;;;9.20;6.68;;;16.80;99.90;;;;;;5083303;28;20648;-68
2022/07/30 04:52:17;;;;;;;11.60;6.72;;;16.70;99.90;;;;;;5085696;28;20251;-68
2022/07/30 04:54:46;;;;;;;8.55;6.32;;;16.70;99.90;;;;;;5085582;28;20644;-68
2022/07/30 04:57:15;;;;;;;7.28;6.57;;;16.70;99.90;;;;;;5087881;28;20559;-69
2022/07/30 04:59:43;;;;;;;9.98;6.70;;;16.60;99.90;;;;;;5081001;28;20699;-69
2022/07/30 05:02:11;;;;;;;9.35;6.97;;;16.80;99.90;;;;;;5085242;28;20251;-69
2022/07/30 05:04:40;;;;;;;7.50;6.38;;;16.80;99.90;;;;;;5086410;28;20320;-68
2022/07/30 05:07:08;;;;;;;11.77;6.82;;;16.80;99.90;;;;;;5090871;28;20202;-68
2022/07/30 05:09:36;;;;;;;7.85;6.60;;;16.70;99.90;;;;;;5081210;28;20230;-68
2022/07/30 05:12:03;;;;;;;7.45;6.40;;;16.70;99.90;;;;;;5089696;28;20220;-69
2022/07/30 05:14:30;;;;;;;8.77;7.18;;;16.60;99.90;;;;;;5087455;28;20237;-69
2022/07/30 05:16:58;;;;;;;9.65;6.63;;;16.50;99.90;;;;;;5091063;28;20206;-68
2022/07/30 05:19:25;;;;;;;10.65;7.38;;;16.60;99.90;;;;;;5090308;28;20245;-69
2022/07/30 05:21:53;;;;;;;10.75;7.60;;;16.50;99.90;;;;;;5083054;28;20198;-69
2022/07/30 05:24:20;;;;;;;8.43;6.85;;;16.60;99.90;;;;;;5088140;28;20501;-75
2022/07/30 05:26:48;;;;;;;10.30;6.80;;;16.60;99.90;;;;;;5087061;28;20656;-69
2022/07/30 05:29:15;;;;;;;8.85;7.28;;;16.60;99.90;;;;;;5088377;28;20222;-70
2022/07/30 05:31:42;;;;;;;8.45;7.05;;;16.60;99.90;;;;;;5087322;28;20229;-70
2022/07/30 05:34:11;;;;;;;10.75;7.00;;;16.60;99.90;;;;;;5087958;28;20285;-69
2022/07/30 05:36:38;;;;;;;8.27;7.38;;;16.60;99.90;;;;;;5088916;28;20267;-70
2022/07/30 05:39:05;;;;;;;9.40;7.22;;;16.70;99.90;;;;;;5090571;28;20251;-69
2022/07/30 05:41:32;;;;;;;9.70;7.45;;;16.70;99.90;;;;;;5086342;28;20232;-70
2022/07/30 05:44:00;;;;;;;8.95;7.40;;;16.70;99.90;;;;;;5087309;28;20256;-73
2022/07/30 05:46:28;;;;;;;10.65;8.13;;;16.70;99.90;;;;;;5089294;28;20216;-69
2022/07/30 05:48:55;;;;;;;10.70;7.95;;;16.70;99.90;;;;;;5087747;28;21888;-68
2022/07/30 05:51:23;;;;;;;9.43;7.40;;;16.80;99.90;;;;;;5091981;28;20220;-69
2022/07/30 05:53:50;;;;;;;9.25;6.93;;;16.80;99.90;;;;;;5085688;28;20285;-69
2022/07/30 05:56:17;;;;;;;10.95;7.93;;;16.80;99.90;;;;;;5088921;28;20247;-69
2022/07/30 05:58:44;;;;;;;10.18;8.25;;;16.70;99.90;;;;;;5087155;28;20270;-69
2022/07/30 06:01:11;;;;;;;10.85;9.18;;;16.70;99.90;;;;;;5087522;28;20221;-78
2022/07/30 06:03:38;;;;;;;13.10;9.52;;;16.70;99.90;;;;;;5086444;28;20298;-78
2022/07/30 06:06:07;;;;;;;9.60;8.55;;;16.90;99.90;;;;;;5089372;28;20198;-79
2022/07/30 06:08:35;;;;;;;10.68;8.88;;;16.80;99.90;;;;;;5088043;28;20217;-71
2022/07/30 06:11:02;;;;;;;10.88;8.50;;;16.80;99.90;;;;;;5085327;28;20199;-71
2022/07/30 06:13:29;;;;;;;11.02;8.80;;;16.80;99.90;;;;;;5089008;28;20576;-71
2022/07/30 06:15:56;;;;;;;11.60;8.80;;;16.80;99.90;;;;;;5087520;28;20576;-69
2022/07/30 06:18:23;;;;;;;11.68;9.25;;;16.90;99.90;;;;;;5086617;28;20206;-71
2022/07/30 06:20:51;;;;;;;11.55;8.68;;;17.00;99.90;;;;;;5085467;28;20260;-78
2022/07/30 06:23:18;;;;;;;12.45;8.25;;;16.80;99.90;;;;;;5090687;28;20198;-71
2022/07/30 06:25:47;;;;;;;12.98;9.13;;;16.70;99.90;;;;;;5084260;28;20215;-73
2022/07/30 06:28:14;;;;;;;13.15;8.82;;;16.80;99.90;;;;;;5088228;28;20221;-78
2022/07/30 06:30:44;;;;;;;11.43;8.38;;;16.90;99.90;;;;;;5087178;28;20214;-78
2022/07/30 06:33:11;;;;;;;10.32;8.18;;;17.00;99.90;;;;;;5085654;28;20304;-78
2022/07/30 06:35:38;;;;;;;10.45;7.78;;;17.00;99.90;;;;;;5085825;28;20210;-78
2022/07/30 06:38:05;;;;;;;9.65;8.20;;;17.10;99.90;;;;;;5087844;28;20326;-78
2022/07/30 06:40:33;;;;;;;11.07;8.27;;;17.10;99.90;;;;;;5086044;28;20272;-78
2022/07/30 06:43:01;;;;;;;12.43;8.02;;;17.10;99.90;;;;;;5084971;28;20203;-78
2022/07/30 06:45:29;;;;;;;10.20;8.77;;;17.30;99.90;;;;;;5090204;28;20252;-69
2022/07/30 06:47:58;;;;;;;10.05;8.18;;;17.40;99.90;;;;;;5087553;28;20199;-69
2022/07/30 06:50:25;;;;;;;10.70;8.80;;;17.40;99.90;;;;;;5087771;28;20201;-69
2022/07/30 06:52:52;;;;;;;11.70;8.73;;;17.50;99.90;;;;;;5083137;28;20609;-69
2022/07/30 06:55:19;;;;;;;10.90;8.50;;;17.40;99.90;;;;;;5088636;28;20229;-69
2022/07/30 06:57:46;;;;;;;10.13;7.82;;;17.40;99.90;;;;;;5082286;28;20206;-73
2022/07/30 07:00:15;;;;;;;10.93;7.85;;;17.30;99.90;;;;;;5087793;28;20228;-73
2022/07/30 07:02:42;;;;;;;13.32;7.95;;;17.50;99.90;;;;;;5085339;28;20240;-73
2022/07/30 07:05:10;;;;;;;11.32;8.70;;;17.50;99.90;;;;;;5090906;28;20202;-79
2022/07/30 07:07:37;;;;;;;11.07;8.73;;;18.00;99.90;;;;;;5080608;28;20202;-78
2022/07/30 07:10:04;;;;;;;10.70;7.90;;;18.20;99.90;;;;;;5089680;28;20641;-69
2022/07/30 07:12:32;;;;;;;12.50;7.97;;;18.10;99.90;;;;;;5090078;28;20542;-68
2022/07/30 07:14:58;;;;;;;9.95;8.10;;;18.00;99.90;;;;;;5090316;28;20290;-68
2022/07/30 07:17:27;;;;;;;10.02;7.47;;;18.30;99.90;;;;;;5083861;28;20241;-69
2022/07/30 07:19:54;;;;;;;10.18;7.72;;;18.40;99.90;;;;;;5071390;28;20290;-68
2022/07/30 07:22:21;;;;;;;10.52;7.40;;;18.50;99.90;;;;;;5078584;28;20194;-68
2022/07/30 07:24:48;;;;;;;7.90;6.95;;;18.70;99.90;;;;;;5092055;28;20190;-68
2022/07/30 07:27:15;;;;;;;9.75;7.40;;;18.90;99.90;;;;;;5089305;28;20251;-68
2022/07/30 07:29:43;;;;;;;11.90;7.78;;;19.00;99.90;;;;;;5091261;28;20740;-72
2022/07/30 07:32:10;;;;;;;8.57;6.20;;;19.00;99.90;;;;;;5090793;28;20250;-72
2022/07/30 07:34:38;;;;;;;8.77;6.72;;;18.90;99.90;;;;;;5091406;28;20255;-72
2022/07/30 07:37:05;;;;;;;8.20;6.43;;;18.90;99.90;;;;;;5089386;28;20193;-72
2022/07/30 07:39:32;;;;;;;8.43;6.57;;;19.20;99.90;;;;;;5091736;28;20636;-72
2022/07/30 07:41:59;;;;;;;6.40;5.60;;;19.10;99.90;;;;;;5089103;28;20194;-73
2022/07/30 07:44:26;;;;;;;9.60;6.50;;;19.20;99.90;;;;;;5091097;28;20272;-73
2022/07/30 07:46:53;;;;;;;7.90;6.28;;;19.40;99.90;;;;;;5090429;28;20236;-71
2022/07/30 07:49:20;;;;;;;7.05;5.28;;;19.60;99.90;;;;;;5090039;28;20222;-71
2022/07/30 07:51:48;;;;;;;7.88;5.57;;;19.50;99.90;;;;;;5091093;28;20318;-71
2022/07/30 07:54:15;;;;;;;7.07;5.22;;;19.60;99.90;;;;;;5089247;28;20253;-73
2022/07/30 07:56:42;;;;;;;6.95;5.55;;;19.80;99.90;;;;;;5091363;28;20289;-77
2022/07/30 07:59:09;;;;;;;7.30;5.95;;;19.50;99.90;;;;;;5091074;28;20258;-77
2022/07/30 08:01:36;;;;;;;8.18;5.65;;;19.50;99.90;;;;;;5089923;28;20522;-71
2022/07/30 08:04:04;;;;;;;8.02;5.63;;;19.40;99.90;;;;;;5088762;28;20554;-72
2022/07/30 08:06:31;;;;;;;7.47;5.22;;;19.60;99.90;;;;;;5090482;28;20197;-68
2022/07/30 08:09:00;;;;;;;5.57;4.90;;;19.70;99.90;;;;;;5089779;28;20217;-72
2022/07/30 08:11:28;;;;;;;7.22;4.78;;;19.90;99.90;;;;;;5089363;28;20545;-69
2022/07/30 08:13:56;;;;;;;5.30;4.80;;;19.80;99.90;;;;;;5090753;28;20197;-68
2022/07/30 08:16:23;;;;;;;5.72;4.35;;;20.10;99.90;;;;;;5088807;28;20541;-68
2022/07/30 08:18:50;;;;;;;5.38;3.53;;;20.20;99.90;;;;;;5086910;28;20255;-68
2022/07/30 08:21:17;;;;;;;4.80;4.40;;;20.00;99.90;;;;;;5085032;28;20651;-68
2022/07/30 08:23:44;;;;;;;4.60;4.20;;;20.30;99.90;;;;;;5089768;28;20194;-68
2022/07/30 08:26:12;;;;;;;6.28;4.60;;;20.40;99.90;;;;;;5090970;28;20672;-72
2022/07/30 08:28:41;;;;;;;5.60;4.63;;;20.50;99.90;;;;;;5089872;28;20226;-73
2022/07/30 08:31:09;;;;;;;5.38;4.47;;;20.50;99.90;;;;;;5090133;28;20568;-72
2022/07/30 08:33:36;;;;;;;5.88;4.20;;;20.60;99.90;;;;;;5090912;28;20259;-72
2022/07/30 08:36:03;;;;;;;5.38;4.72;;;20.60;99.90;;;;;;5090090;28;20198;-76
2022/07/30 08:38:30;;;;;;;4.25;3.85;;;20.50;99.90;;;;;;5091833;28;20247;-76
2022/07/30 08:40:58;;;;;;;7.25;4.78;;;20.70;99.90;;;;;;5094861;28;20235;-76
2022/07/30 08:43:26;;;;;;;5.32;4.30;;;20.60;99.90;;;;;;5093429;28;20194;-72
2022/07/30 08:45:56;;;;;;;4.63;4.22;;;20.40;99.90;;;;;;5093034;28;20206;-72
2022/07/30 08:48:26;;;;;;;5.25;4.43;;;20.60;99.90;;;;;;5092808;28;20202;-68
2022/07/30 08:50:54;;;;;;;5.15;4.10;;;20.50;99.90;;;;;;5092545;28;20208;-69
2022/07/30 08:53:22;;;;;;;5.68;4.00;;;20.40;99.90;;;;;;5092637;28;20189;-68
2022/07/30 08:55:49;;;;;;;4.82;4.32;;;20.30;99.90;;;;;;5094233;28;20541;-68
2022/07/30 08:58:33;;;;;;;6.38;4.43;;;20.40;99.90;;;;;;5093864;28;20286;-71
2022/07/30 09:01:00;;;;;;;5.18;4.65;;;20.50;99.90;;;;;;5081633;28;20255;-72
2022/07/30 09:03:28;;;;;;;6.43;4.45;;;20.80;99.90;;;;;;5082393;28;20190;-72
2022/07/30 09:05:55;;;;;;;5.03;4.25;;;20.70;99.90;;;;;;5084273;28;20649;-76
2022/07/30 09:08:22;;;;;;;4.70;4.30;;;20.90;99.90;;;;;;5086534;28;20197;-76
2022/07/30 09:10:49;;;;;;;6.13;4.32;;;21.40;99.90;;;;;;5094330;28;20306;-77
2022/07/30 09:13:27;;;;;;;5.53;4.55;;;21.30;99.90;;;;;;5093961;28;20259;-72
2022/07/30 09:15:56;;;;;;;6.30;4.65;;;21.40;99.90;;;;;;5094061;28;20788;-77
2022/07/30 09:18:28;;;;;;;4.82;4.25;;;21.80;99.90;;;;;;5094331;28;20266;-73
2022/07/30 09:20:56;;;;;;;4.00;3.67;;;22.30;99.90;;;;;;5093026;28;20201;-73
2022/07/30 09:23:22;;;;;;;5.25;4.18;;;23.20;99.90;;;;;;5093924;28;20194;-77
2022/07/30 09:25:50;;;;;;;4.35;3.60;;;22.90;99.90;;;;;;5094543;28;20198;-77
2022/07/30 09:28:28;;;;;;;5.40;4.00;;;22.50;99.90;;;;;;5094955;28;20209;-77
2022/07/30 09:30:57;;;;;;;5.15;3.85;;;22.70;99.90;;;;;;5058732;28;20740;-73
2022/07/30 09:33:35;;;;;;;4.13;3.78;;;23.00;99.90;;;;;;5093488;28;20202;-73
2022/07/30 09:36:04;;;;;;;7.93;4.13;;;23.40;99.90;;;;;;5093849;28;20233;-69
2022/07/30 09:38:47;;;;;;;3.97;3.45;;;23.30;99.90;;;;;;5092378;28;20209;-69
2022/07/30 09:41:15;;;;;;;3.15;2.88;;;23.70;99.90;;;;;;5093545;28;20202;-69
2022/07/30 09:43:44;;;;;;;4.20;3.80;;;24.30;99.90;;;;;;5093488;28;20233;-73
2022/07/30 09:46:15;;;;;;;3.17;2.88;;;24.30;99.90;;;;;;5093050;28;20595;-70
2022/07/30 09:48:43;;;;;;;4.15;3.55;;;24.40;99.90;;;;;;5093372;28;20643;-70
2022/07/30 09:51:10;;;;;;;4.28;2.70;;;24.50;99.90;;;;;;5090048;28;20271;-69
2022/07/30 09:53:57;;;;;;;3.03;2.63;;;24.70;99.90;;;;;;5083387;28;20216;-70
2022/07/30 09:56:26;;;;;;;3.47;2.80;;;25.00;99.90;;;;;;5087601;28;20209;-73
2022/07/30 09:58:53;;;;;;;4.50;2.80;;;25.00;96.30;;;;;;5087101;28;20197;-73
2022/07/30 10:01:22;;;;;;;2.95;2.75;;;25.20;91.20;;;;;;5089656;28;20206;-69
2022/07/30 10:03:51;;;;;;;4.03;2.92;;;25.20;87.50;;;;;;5083146;28;20206;-69
2022/07/30 10:06:18;;;;;;;4.32;2.78;;;25.00;83.50;;;;;;5090133;28;20709;-69
2022/07/30 10:08:48;;;;;;;3.00;2.70;;;25.40;74.20;;;;;;5088277;28;20198;-72
2022/07/30 10:11:21;;;;;;;2.88;2.67;;;25.40;80.90;;;;;;5086482;28;20282;-69
2022/07/30 10:13:49;;;;;;;4.53;2.92;;;25.50;83.00;;;;;;5086915;28;20212;-73
2022/07/30 10:16:16;;;;;;;5.85;3.38;;;25.70;78.10;;;;;;5092334;28;20229;-76
2022/07/30 10:18:45;;;;;;;3.08;2.30;;;26.10;67.90;;;;;;5089144;28;20587;-76
2022/07/30 10:21:13;;;;;;;4.00;2.75;;;25.70;61.20;;;;;;5086919;28;20209;-74
2022/07/30 10:23:41;;;;;;;2.83;2.53;;;26.00;60.60;;;;;;5086682;28;20280;-73
2022/07/30 10:26:08;;;;;;;2.90;2.70;;;25.50;65.20;;;;;;5087467;28;20285;-72
2022/07/30 10:28:36;;;;;;;3.05;2.80;;;24.90;68.60;;;;;;5089294;28;20198;-73
2022/07/30 10:31:03;;;;;;;5.03;2.65;;;24.80;74.90;;;;;;5083371;28;20683;-73
2022/07/30 10:33:30;;;;;;;3.17;2.45;;;25.70;61.50;;;;;;5090597;28;20198;-75
2022/07/30 10:35:59;;;;;;;3.60;2.53;;;25.50;54.70;;;;;;5085999;28;20230;-75
2022/07/30 10:38:31;;;;;;;3.08;2.80;;;25.60;65.00;;;;;;5083134;28;20194;-75
2022/07/30 10:41:02;;;;;;;3.65;2.58;;;25.70;56.90;;;;;;5089270;28;20273;-75
2022/07/30 10:43:53;;;;;;;3.33;3.00;;;25.30;61.90;;;;;;5082800;28;20205;-75
2022/07/30 10:46:34;;;;;;;3.67;2.85;;;26.60;60.20;;;;;;5071233;28;20201;-75
2022/07/30 10:49:12;;;;;;;2.97;2.70;;;26.90;55.30;;;;;;5071144;28;20202;-74
2022/07/30 10:51:48;;;;;;;4.53;3.10;;;27.20;53.00;;;;;;5086517;28;20197;-75
2022/07/30 10:54:41;;;;;;;2.92;2.72;;;27.80;51.60;;;;;;5086566;28;20229;-73
2022/07/30 10:57:11;;;;;;;5.00;3.00;;;27.70;45.40;;;;;;5088016;28;20209;-72
2022/07/30 11:00:08;;;;;;;2.85;2.65;;;27.40;52.10;;;;;;5085931;28;20223;-72
2022/07/30 11:02:35;;;;;;;2.85;2.65;;;26.50;60.60;;;;;;5088047;28;20206;-72
2022/07/30 11:05:24;;;;;;;6.65;3.03;;;26.40;53.10;;;;;;5090648;28;20205;-71
2022/07/30 11:07:52;;;;;;;3.22;2.90;;;25.80;52.40;;;;;;5079483;28;20208;-70
2022/07/30 11:10:37;;;;;;;4.38;2.90;;;26.00;58.40;;;;;;5085011;28;20236;-70
2022/07/30 11:13:05;;;;;;;3.17;2.92;;;26.00;60.50;;;;;;5088128;28;20241;-70
2022/07/30 11:15:55;;;;;;;4.03;2.70;;;26.60;55.00;;;;;;5083209;28;20576;-70
2022/07/30 11:18:23;;;;;;;5.25;3.33;;;25.80;56.60;;;;;;5082269;28;20202;-71
2022/07/30 11:21:18;;;;;;;2.90;2.60;;;25.70;61.00;;;;;;5086591;28;20561;-70
2022/07/30 11:23:48;;;;;;;3.47;3.08;;;26.10;52.60;;;;;;5082752;28;20232;-70
2022/07/30 11:26:47;;;;;;;4.85;4.38;;;26.50;60.40;;;;;;5087468;28;20742;-70
2022/07/30 11:29:32;;;;;;;3.45;3.00;;;25.90;56.80;;;;;;5084306;28;20211;-70
2022/07/30 11:32:27;;;;;;;3.45;3.15;;;25.20;64.10;;;;;;5085067;28;20605;-70
2022/07/30 11:35:15;;;;;;;6.82;3.45;;;25.20;73.50;;;;;;5082623;28;20633;-70
2022/07/30 11:38:06;;;;;;;4.35;2.63;;;25.30;68.00;;;;;;5088857;28;20263;-70
2022/07/30 11:40:36;;;;;;;2.83;2.63;;;25.50;56.90;;;;;;5086973;28;20207;-70
2022/07/30 11:43:19;;;;;;;3.15;2.47;;;25.70;56.80;;;;;;5088968;28;20272;-70
2022/07/30 11:45:47;;;;;;;3.50;2.50;;;25.70;49.50;;;;;;5086898;28;20197;-72
2022/07/30 11:48:17;;;;;;;3.08;2.80;;;25.10;47.80;;;;;;5084632;28;20194;-72
2022/07/30 11:50:44;;;;;;;3.03;2.42;;;26.10;51.20;;;;;;5084343;28;20679;-71
2022/07/30 11:53:16;;;;;;;4.25;2.75;;;26.50;45.80;;;;;;5086973;28;20201;-71
2022/07/30 11:55:46;;;;;;;2.75;2.40;;;26.60;42.70;;;;;;5087498;28;20260;-70
2022/07/30 11:58:25;;;;;;;2.25;2.15;;;26.20;46.80;;;;;;5083407;28;20202;-69
2022/07/30 12:00:53;;;;;;;2.47;2.35;;;26.10;35.80;;;;;;5085045;28;20202;-69
2022/07/30 12:03:21;;;;;;;4.10;2.63;;;26.70;40.60;;;;;;5084097;28;20322;-69
2022/07/30 12:05:49;;;;;;;2.80;2.60;;;27.00;38.30;;;;;;5084896;28;20202;-69
2022/07/30 12:08:17;;;;;;;3.63;2.78;;;26.40;39.50;;;;;;5088208;28;20615;-69
2022/07/30 12:10:56;;;;;;;3.00;2.70;;;25.80;42.90;;;;;;5088355;28;20312;-69
2022/07/30 12:13:23;;;;;;;3.10;2.63;;;26.60;36.80;;;;;;5087415;28;20205;-69
2022/07/30 12:15:50;;;;;;;3.22;2.85;;;27.40;41.80;;;;;;5090088;28;20212;-69
2022/07/30 12:18:25;;;;;;;2.97;2.65;;;27.90;30.60;;;;;;5089214;28;20258;-69
2022/07/30 12:20:57;;;;;;;2.55;2.35;;;27.90;27.10;;;;;;5089116;28;20647;-69
2022/07/30 12:23:24;;;;;;;4.18;2.53;;;28.00;32.50;;;;;;5091788;28;20655;-69
2022/07/30 12:25:53;;;;;;;2.78;2.58;;;28.30;26.80;;;;;;5088900;28;20218;-69
2022/07/30 12:28:21;;;;;;;2.40;2.30;;;28.50;25.30;;;;;;5088757;28;20202;-69
2022/07/30 12:30:48;;;;;;;2.10;1.92;;;28.20;22.10;;;;;;5086391;28;20671;-69
2022/07/30 12:33:15;;;;;;;2.65;2.45;;;28.40;24.10;;;;;;5090991;28;20369;-69
2022/07/30 12:35:47;;;;;;;4.75;2.30;;;28.50;23.90;;;;;;5082742;28;20202;-69
2022/07/30 12:38:14;;;;;;;4.35;2.58;;;28.10;23.30;;;;;;5091651;28;20277;-69
2022/07/30 12:40:57;;;;;;;2.55;2.35;;;27.70;21.10;;;;;;5089734;28;20209;-69
2022/07/30 12:43:44;;;;;;;3.85;3.05;;;28.00;22.20;;;;;;5086218;28;20198;-69
2022/07/30 12:46:13;;;;;;;3.83;2.80;;;27.80;22.50;;;;;;5092526;28;20205;-69
2022/07/30 12:48:52;;;;;;;3.38;2.67;;;26.90;25.00;;;;;;5087825;28;20703;-69
2022/07/30 12:51:20;;;;;;;2.78;2.58;;;26.30;27.80;;;;;;5073146;28;20226;-69
2022/07/30 12:53:47;;;;;;;2.90;2.70;;;26.10;33.10;;;;;;5083206;28;20197;-70
2022/07/30 12:56:18;;;;;;;4.10;2.92;;;26.70;28.30;;;;;;5091844;28;20198;-71
2022/07/30 12:58:45;;;;;;;3.25;2.92;;;27.00;30.20;;;;;;5082757;28;20240;-69